Time;durP1;ratioP1;P1;durP2;ratioP2;P2;SDS_P1;SDS_P2;PMS_P1;PMS_P2;Temp;Humidity;BMP_temperature;BMP_pressure;BME280_temperature;BME280_humidity;BME280_pressure;Samples;Min_cycle;Max_cycle;Signal;HPM_P1;HPM_P2
2023/06/10 00:00:43;;;;;;;6.78;3.83;;;;;;;;;;5133713;27;20074;-82
2023/06/10 00:03:10;;;;;;;7.70;4.70;;;;;;;;;;5132530;27;20054;-81
2023/06/10 00:05:38;;;;;;;8.65;4.60;;;;;;;;;;5112432;27;20034;-80
2023/06/10 00:08:07;;;;;;;7.95;4.38;;;;;;;;;;5156440;27;20066;-81
2023/06/10 00:10:36;;;;;;;7.82;4.47;;;;;;;;;;5120641;27;20047;-80
2023/06/10 00:13:03;;;;;;;10.43;4.55;;;;;;;;;;5129387;27;20088;-80
2023/06/10 00:15:29;;;;;;;10.60;4.70;;;;;;;;;;5136894;27;20038;-81
2023/06/10 00:17:56;;;;;;;8.90;4.70;;;;;;;;;;5121284;27;20050;-81
2023/06/10 00:20:23;;;;;;;8.27;4.60;;;;;;;;;;5133214;27;20126;-81
2023/06/10 00:22:53;;;;;;;8.70;4.40;;;;;;;;;;5118444;27;20047;-81
2023/06/10 00:25:19;;;;;;;8.23;4.75;;;;;;;;;;5149648;27;20042;-81
2023/06/10 00:27:45;;;;;;;9.30;4.80;;;;;;;;;;5155495;27;20053;-81
2023/06/10 00:30:12;;;;;;;7.90;4.50;;;;;;;;;;5137923;27;20394;-81
2023/06/10 00:32:38;;;;;;;9.60;4.97;;;;;;;;;;5157193;27;20486;-81
2023/06/10 00:35:04;;;;;;;13.07;5.10;;;;;;;;;;5156943;27;20045;-81
2023/06/10 00:37:31;;;;;;;8.82;4.80;;;;;;;;;;5142351;27;20118;-81
2023/06/10 00:39:58;;;;;;;12.60;4.82;;;;;;;;;;5136206;27;20091;-81
2023/06/10 00:42:25;;;;;;;10.25;4.80;;;;;;;;;;5100938;27;20046;-81
2023/06/10 00:44:51;;;;;;;8.10;4.68;;;;;;;;;;5117582;27;20125;-81
2023/06/10 00:47:17;;;;;;;10.52;4.90;;;;;;;;;;5118037;27;20365;-81
2023/06/10 00:49:44;;;;;;;10.73;4.70;;;;;;;;;;5135654;27;20492;-81
2023/06/10 00:52:10;;;;;;;9.40;4.97;;;;;;;;;;5098922;27;20039;-81
2023/06/10 00:54:38;;;;;;;10.15;4.95;;;;;;;;;;5115163;27;20054;-80
2023/06/10 00:57:05;;;;;;;8.43;5.03;;;;;;;;;;5135346;27;20096;-81
2023/06/10 00:59:31;;;;;;;9.15;4.88;;;;;;;;;;5151510;27;20047;-80
2023/06/10 01:01:58;;;;;;;11.80;5.07;;;;;;;;;;5133936;27;20117;-81
2023/06/10 01:04:24;;;;;;;9.90;4.85;;;;;;;;;;5132356;27;20058;-81
2023/06/10 01:07:00;;;;;;;11.77;5.45;;;;;;;;;;5144177;27;20325;-81
2023/06/10 01:09:42;;;;;;;10.68;5.18;;;;;;;;;;5129370;27;20057;-81
2023/06/10 01:12:12;;;;;;;9.30;4.63;;;;;;;;;;5132236;27;20420;-81
2023/06/10 01:14:38;;;;;;;8.23;4.70;;;;;;;;;;5115383;27;20208;-80
2023/06/10 01:17:05;;;;;;;10.88;5.18;;;;;;;;;;5125408;27;20043;-81
2023/06/10 01:19:31;;;;;;;9.10;4.85;;;;;;;;;;5145057;27;20039;-81
2023/06/10 01:22:00;;;;;;;7.65;4.97;;;;;;;;;;5156296;27;20042;-81
2023/06/10 01:24:26;;;;;;;10.02;4.70;;;;;;;;;;5137522;27;20038;-82
2023/06/10 01:26:54;;;;;;;8.13;4.75;;;;;;;;;;5136582;27;20057;-82
2023/06/10 01:29:24;;;;;;;11.02;5.15;;;;;;;;;;5107100;27;20093;-81
2023/06/10 01:31:54;;;;;;;8.88;5.30;;;;;;;;;;5135297;27;20046;-82
2023/06/10 01:34:21;;;;;;;9.45;4.88;;;;;;;;;;5116746;27;20043;-82
2023/06/10 01:36:48;;;;;;;8.05;4.93;;;;;;;;;;5141379;27;20039;-82
2023/06/10 01:39:16;;;;;;;10.18;5.05;;;;;;;;;;5155977;27;20125;-81
2023/06/10 01:41:42;;;;;;;8.45;4.70;;;;;;;;;;5155716;27;20039;-81
2023/06/10 01:44:08;;;;;;;9.55;4.80;;;;;;;;;;5137506;27;20515;-82
2023/06/10 01:46:35;;;;;;;11.18;5.15;;;;;;;;;;5120276;27;20464;-82
2023/06/10 01:49:01;;;;;;;10.20;5.10;;;;;;;;;;5156077;27;20391;-82
2023/06/10 01:51:27;;;;;;;6.90;4.80;;;;;;;;;;5137489;27;20038;-82
2023/06/10 01:53:53;;;;;;;9.10;4.70;;;;;;;;;;5147953;27;20363;-82
2023/06/10 01:56:19;;;;;;;9.75;4.93;;;;;;;;;;5135392;27;20118;-82
2023/06/10 01:58:48;;;;;;;9.80;4.60;;;;;;;;;;5134730;27;20054;-82
2023/06/10 02:01:14;;;;;;;9.50;4.95;;;;;;;;;;5117396;27;20050;-82
2023/06/10 02:03:40;;;;;;;9.18;5.18;;;;;;;;;;5116176;27;20107;-82
2023/06/10 02:06:07;;;;;;;10.25;4.97;;;;;;;;;;5154193;27;20092;-82
2023/06/10 02:08:33;;;;;;;9.18;5.10;;;;;;;;;;5143711;27;20055;-82
2023/06/10 02:10:59;;;;;;;8.30;4.82;;;;;;;;;;5135096;27;20096;-82
2023/06/10 02:13:25;;;;;;;9.15;4.80;;;;;;;;;;5134793;27;20039;-82
2023/06/10 02:15:53;;;;;;;7.75;4.82;;;;;;;;;;5146172;27;20042;-82
2023/06/10 02:18:20;;;;;;;8.38;4.60;;;;;;;;;;5132645;27;20047;-82
2023/06/10 02:20:47;;;;;;;10.32;5.10;;;;;;;;;;5115978;27;20035;-81
2023/06/10 02:23:13;;;;;;;10.43;5.38;;;;;;;;;;5099194;27;20042;-81
2023/06/10 02:25:39;;;;;;;9.85;5.05;;;;;;;;;;5145959;27;20112;-81
2023/06/10 02:28:05;;;;;;;9.52;5.30;;;;;;;;;;5154507;27;20046;-81
2023/06/10 02:30:32;;;;;;;10.55;4.72;;;;;;;;;;5133212;27;20356;-80
2023/06/10 02:32:59;;;;;;;12.05;4.85;;;;;;;;;;5154206;27;20056;-80
2023/06/10 02:35:25;;;;;;;10.55;4.90;;;;;;;;;;5134392;27;20043;-81
2023/06/10 02:37:51;;;;;;;11.80;4.95;;;;;;;;;;5135781;27;20046;-80
2023/06/10 02:40:17;;;;;;;12.43;4.82;;;;;;;;;;5136185;27;20042;-81
2023/06/10 02:42:43;;;;;;;10.45;4.70;;;;;;;;;;5116508;27;20053;-81
2023/06/10 02:45:09;;;;;;;8.43;4.65;;;;;;;;;;5133554;27;20049;-80
2023/06/10 02:47:39;;;;;;;8.70;4.55;;;;;;;;;;5143149;27;20047;-81
2023/06/10 02:50:06;;;;;;;8.07;4.40;;;;;;;;;;5117062;27;20114;-81
2023/06/10 02:52:32;;;;;;;8.18;4.60;;;;;;;;;;5098369;27;20050;-81
2023/06/10 02:54:58;;;;;;;7.72;4.22;;;;;;;;;;5132952;27;20050;-81
2023/06/10 02:57:24;;;;;;;12.27;4.70;;;;;;;;;;5133945;27;20517;-81
2023/06/10 02:59:51;;;;;;;13.65;4.95;;;;;;;;;;5132552;27;20486;-81
2023/06/10 03:02:17;;;;;;;9.38;4.43;;;;;;;;;;5120638;27;20043;-81
2023/06/10 03:04:44;;;;;;;11.70;5.00;;;;;;;;;;5133850;27;20138;-81
2023/06/10 03:07:11;;;;;;;11.07;5.20;;;;;;;;;;5154201;27;20126;-81
2023/06/10 03:09:37;;;;;;;9.10;4.53;;;;;;;;;;5149940;27;20103;-81
2023/06/10 03:12:03;;;;;;;13.15;4.68;;;;;;;;;;5147711;27;20045;-81
2023/06/10 03:14:29;;;;;;;8.80;4.85;;;;;;;;;;5134106;27;20061;-81
2023/06/10 03:16:55;;;;;;;10.65;4.90;;;;;;;;;;5123596;27;20050;-82
2023/06/10 03:19:23;;;;;;;9.18;4.90;;;;;;;;;;5154612;27;20043;-81
2023/06/10 03:21:50;;;;;;;8.15;4.93;;;;;;;;;;5154384;27;20387;-82
2023/06/10 03:24:16;;;;;;;10.55;4.95;;;;;;;;;;5135751;27;20046;-81
2023/06/10 03:26:42;;;;;;;9.32;4.70;;;;;;;;;;5154231;27;20130;-81
2023/06/10 03:29:08;;;;;;;12.90;5.03;;;;;;;;;;5144892;27;20130;-80
2023/06/10 03:31:36;;;;;;;9.98;4.93;;;;;;;;;;5133175;28;20118;-82
2023/06/10 03:34:02;;;;;;;12.30;5.13;;;;;;;;;;5114939;28;20043;-81
2023/06/10 03:36:29;;;;;;;11.43;5.35;;;;;;;;;;5115075;28;20051;-82
2023/06/10 03:38:56;;;;;;;10.00;4.40;;;;;;;;;;5114870;28;20039;-81
2023/06/10 03:41:22;;;;;;;13.95;5.10;;;;;;;;;;5117234;27;20054;-81
2023/06/10 03:43:48;;;;;;;11.73;5.10;;;;;;;;;;5133048;27;20078;-81
2023/06/10 03:46:15;;;;;;;13.65;5.70;;;;;;;;;;5139034;27;20039;-81
2023/06/10 03:48:41;;;;;;;11.45;5.57;;;;;;;;;;5154855;27;20042;-81
2023/06/10 03:51:07;;;;;;;13.45;5.93;;;;;;;;;;5137602;27;20430;-81
2023/06/10 03:53:33;;;;;;;9.98;5.47;;;;;;;;;;5137326;27;20164;-81
2023/06/10 03:55:59;;;;;;;12.68;5.60;;;;;;;;;;5118856;27;20468;-81
2023/06/10 03:58:25;;;;;;;13.20;5.97;;;;;;;;;;5102696;27;20145;-82
2023/06/10 04:00:51;;;;;;;9.57;5.68;;;;;;;;;;5119747;27;20039;-82
2023/06/10 04:03:17;;;;;;;11.27;5.90;;;;;;;;;;5133648;27;20035;-81
2023/06/10 04:05:43;;;;;;;14.20;6.07;;;;;;;;;;5156885;27;20476;-82
2023/06/10 04:08:09;;;;;;;13.73;6.40;;;;;;;;;;5154320;27;20487;-82
2023/06/10 04:10:36;;;;;;;14.77;6.22;;;;;;;;;;5152572;27;20045;-82
2023/06/10 04:13:03;;;;;;;12.88;6.72;;;;;;;;;;5144826;27;20077;-82
2023/06/10 04:15:29;;;;;;;11.60;6.75;;;;;;;;;;5155380;27;20108;-81
2023/06/10 04:17:55;;;;;;;13.60;6.10;;;;;;;;;;5150827;27;20035;-82
2023/06/10 04:20:22;;;;;;;13.20;6.43;;;;;;;;;;5127227;27;20052;-82
2023/06/10 04:22:48;;;;;;;12.45;6.28;;;;;;;;;;5111460;27;20488;-81
2023/06/10 04:25:14;;;;;;;15.55;7.10;;;;;;;;;;5136445;27;20124;-81
2023/06/10 04:27:40;;;;;;;13.48;7.22;;;;;;;;;;5143643;27;20102;-83
2023/06/10 04:30:06;;;;;;;13.88;6.70;;;;;;;;;;5156880;27;20046;-81
2023/06/10 04:32:32;;;;;;;12.73;6.57;;;;;;;;;;5121737;27;20039;-81
2023/06/10 04:35:00;;;;;;;13.18;6.97;;;;;;;;;;5157263;27;20082;-80
2023/06/10 04:37:28;;;;;;;13.82;7.13;;;;;;;;;;5121759;27;20039;-82
2023/06/10 04:39:55;;;;;;;15.48;7.50;;;;;;;;;;5138453;27;20043;-81
2023/06/10 04:42:21;;;;;;;16.27;7.32;;;;;;;;;;5157639;27;20043;-81
2023/06/10 04:44:47;;;;;;;11.27;6.78;;;;;;;;;;5156739;27;20039;-80
2023/06/10 04:47:13;;;;;;;15.07;6.63;;;;;;;;;;5156871;27;20050;-82
2023/06/10 04:49:39;;;;;;;17.33;6.85;;;;;;;;;;5156721;27;20440;-81
2023/06/10 04:52:05;;;;;;;11.63;6.32;;;;;;;;;;5155948;27;20395;-81
2023/06/10 04:54:32;;;;;;;15.63;7.30;;;;;;;;;;5137872;27;20114;-81
2023/06/10 04:56:59;;;;;;;12.85;6.63;;;;;;;;;;5156604;27;20066;-81
2023/06/10 04:59:25;;;;;;;16.98;7.35;;;;;;;;;;5117396;27;20055;-81
2023/06/10 05:01:51;;;;;;;16.17;7.28;;;;;;;;;;5134828;27;20518;-81
2023/06/10 05:04:17;;;;;;;15.07;6.97;;;;;;;;;;5120244;27;20039;-81
2023/06/10 05:06:43;;;;;;;15.70;6.53;;;;;;;;;;5117499;27;20090;-81
2023/06/10 05:09:10;;;;;;;12.95;6.57;;;;;;;;;;5118411;27;20047;-82
2023/06/10 05:11:36;;;;;;;14.65;7.40;;;;;;;;;;5124909;27;20035;-82
2023/06/10 05:14:02;;;;;;;16.00;6.63;;;;;;;;;;5118612;27;20035;-82
2023/06/10 05:16:28;;;;;;;14.43;6.70;;;;;;;;;;5125897;27;20154;-82
2023/06/10 05:18:54;;;;;;;13.25;6.80;;;;;;;;;;5099563;27;20069;-81
2023/06/10 05:21:20;;;;;;;14.70;6.60;;;;;;;;;;5100537;27;20055;-81
2023/06/10 05:23:46;;;;;;;14.23;6.70;;;;;;;;;;5122272;27;20043;-81
2023/06/10 05:26:12;;;;;;;12.48;6.43;;;;;;;;;;5124526;27;20031;-81
2023/06/10 05:28:38;;;;;;;13.93;6.80;;;;;;;;;;5137005;27;20046;-81
2023/06/10 05:31:04;;;;;;;12.52;6.60;;;;;;;;;;5151498;27;20444;-80
2023/06/10 05:33:30;;;;;;;12.38;6.68;;;;;;;;;;5147984;27;20129;-81
2023/06/10 05:35:57;;;;;;;13.68;6.95;;;;;;;;;;5143547;27;20547;-80
2023/06/10 05:38:23;;;;;;;11.35;6.55;;;;;;;;;;5139331;27;20466;-80
2023/06/10 05:40:49;;;;;;;12.50;6.38;;;;;;;;;;5135035;27;20047;-80
2023/06/10 05:43:16;;;;;;;13.02;6.78;;;;;;;;;;5135132;27;20494;-80
2023/06/10 05:45:42;;;;;;;14.85;6.68;;;;;;;;;;5135841;27;20043;-80
2023/06/10 05:48:08;;;;;;;11.85;6.35;;;;;;;;;;5121154;27;20051;-81
2023/06/10 05:50:38;;;;;;;14.48;6.30;;;;;;;;;;5137004;27;20049;-80
2023/06/10 05:53:06;;;;;;;14.18;6.55;;;;;;;;;;5154539;27;20035;-80
2023/06/10 05:55:32;;;;;;;11.95;6.18;;;;;;;;;;5134799;27;20039;-80
2023/06/10 05:58:00;;;;;;;13.70;6.00;;;;;;;;;;5116454;27;20195;-80
2023/06/10 06:00:26;;;;;;;11.90;5.70;;;;;;;;;;5113194;27;20125;-80
2023/06/10 06:02:54;;;;;;;11.77;6.15;;;;;;;;;;5134132;27;20455;-80
2023/06/10 06:05:20;;;;;;;13.15;5.90;;;;;;;;;;5142992;27;20061;-79
2023/06/10 06:07:46;;;;;;;14.68;6.65;;;;;;;;;;5154945;27;20062;-81
2023/06/10 06:10:12;;;;;;;13.00;6.05;;;;;;;;;;5154792;27;20082;-80
2023/06/10 06:12:38;;;;;;;11.95;6.60;;;;;;;;;;5155270;27;20050;-81
2023/06/10 06:15:04;;;;;;;11.18;5.63;;;;;;;;;;5155186;27;20046;-80
2023/06/10 06:17:30;;;;;;;12.55;6.00;;;;;;;;;;5155062;27;20121;-81
2023/06/10 06:19:56;;;;;;;12.30;6.05;;;;;;;;;;5136495;27;20090;-81
2023/06/10 06:22:22;;;;;;;14.20;6.47;;;;;;;;;;5135125;27;20365;-81
2023/06/10 06:24:49;;;;;;;11.90;6.05;;;;;;;;;;5135700;27;20039;-81
2023/06/10 06:27:15;;;;;;;10.93;6.15;;;;;;;;;;5116168;27;20055;-81
2023/06/10 06:29:41;;;;;;;13.60;5.90;;;;;;;;;;5133900;27;20050;-80
2023/06/10 06:32:07;;;;;;;11.07;5.85;;;;;;;;;;5115904;27;20445;-80
2023/06/10 06:34:33;;;;;;;11.85;5.72;;;;;;;;;;5115592;27;20051;-80
2023/06/10 06:36:59;;;;;;;11.70;5.70;;;;;;;;;;5133021;27;20062;-81
2023/06/10 06:39:25;;;;;;;12.95;5.85;;;;;;;;;;5132252;27;20035;-81
2023/06/10 06:41:51;;;;;;;10.95;6.10;;;;;;;;;;5133459;27;20043;-81
2023/06/10 06:44:17;;;;;;;11.27;5.78;;;;;;;;;;5134080;27;20043;-81
2023/06/10 06:46:43;;;;;;;10.32;5.65;;;;;;;;;;5115459;27;20047;-81
2023/06/10 06:49:09;;;;;;;12.13;5.75;;;;;;;;;;5098259;27;20047;-81
2023/06/10 06:51:35;;;;;;;12.60;5.38;;;;;;;;;;5116004;27;20036;-80
2023/06/10 06:54:01;;;;;;;10.20;5.43;;;;;;;;;;5135159;27;20439;-81
2023/06/10 06:56:28;;;;;;;10.80;5.32;;;;;;;;;;5133823;27;20399;-81
2023/06/10 06:58:54;;;;;;;11.85;5.57;;;;;;;;;;5115323;27;20134;-81
2023/06/10 07:01:20;;;;;;;13.48;5.68;;;;;;;;;;5134843;27;20041;-81
2023/06/10 07:03:46;;;;;;;9.35;5.60;;;;;;;;;;5115136;27;20046;-80
2023/06/10 07:06:13;;;;;;;13.07;6.03;;;;;;;;;;5133798;27;20038;-80
2023/06/10 07:08:39;;;;;;;9.98;5.30;;;;;;;;;;5138122;27;20047;-81
2023/06/10 07:11:05;;;;;;;10.30;5.70;;;;;;;;;;5129048;27;20139;-81
2023/06/10 07:13:31;;;;;;;8.70;5.20;;;;;;;;;;5140848;27;20047;-81
2023/06/10 07:15:57;;;;;;;10.05;5.45;;;;;;;;;;5132948;27;20046;-80
2023/06/10 07:18:23;;;;;;;11.40;5.13;;;;;;;;;;5147749;27;20035;-80
2023/06/10 07:20:49;;;;;;;7.15;4.80;;;;;;;;;;5133350;28;20035;-85
2023/06/10 07:23:15;;;;;;;10.63;5.15;;;;;;;;;;5135437;27;20047;-83
2023/06/10 07:25:42;;;;;;;10.82;5.00;;;;;;;;;;5135135;27;20493;-81
2023/06/10 07:28:08;;;;;;;11.27;4.95;;;;;;;;;;5135012;27;20077;-82
2023/06/10 07:30:34;;;;;;;15.70;5.10;;;;;;;;;;5134662;27;20052;-80
2023/06/10 07:33:01;;;;;;;9.90;5.30;;;;;;;;;;5153798;27;20042;-81
2023/06/10 07:35:27;;;;;;;9.32;4.80;;;;;;;;;;5154313;27;20115;-81
2023/06/10 07:37:53;;;;;;;11.23;4.93;;;;;;;;;;5154277;27;20407;-81
2023/06/10 07:40:19;;;;;;;10.63;5.22;;;;;;;;;;5152165;27;20039;-81
2023/06/10 07:42:45;;;;;;;9.90;4.57;;;;;;;;;;5152252;27;20123;-81
2023/06/10 07:45:11;;;;;;;8.70;4.70;;;;;;;;;;5135217;27;20503;-81
2023/06/10 07:47:38;;;;;;;9.30;4.95;;;;;;;;;;5135532;27;20054;-80
2023/06/10 07:50:04;;;;;;;9.65;4.80;;;;;;;;;;5153527;27;20444;-79
2023/06/10 07:52:31;;;;;;;9.63;4.40;;;;;;;;;;5141974;27;20091;-79
2023/06/10 07:54:57;;;;;;;11.07;4.82;;;;;;;;;;5130464;27;20046;-78
2023/06/10 07:57:23;;;;;;;9.70;4.50;;;;;;;;;;5135376;27;20460;-78
2023/06/10 07:59:49;;;;;;;8.18;4.50;;;;;;;;;;5117391;28;20042;-78
2023/06/10 08:02:15;;;;;;;9.07;4.55;;;;;;;;;;5114401;28;20376;-78
2023/06/10 08:04:41;;;;;;;10.82;5.03;;;;;;;;;;5096745;28;20055;-78
2023/06/10 08:07:07;;;;;;;12.05;4.85;;;;;;;;;;5130809;28;20384;-78
2023/06/10 08:09:33;;;;;;;9.57;4.50;;;;;;;;;;5125545;27;20498;-82
2023/06/10 08:11:59;;;;;;;8.35;4.35;;;;;;;;;;5153090;27;20034;-82
2023/06/10 08:14:25;;;;;;;9.77;4.50;;;;;;;;;;5153603;27;20074;-82
2023/06/10 08:16:51;;;;;;;8.35;4.60;;;;;;;;;;5153945;27;20049;-83
2023/06/10 08:19:17;;;;;;;9.88;4.15;;;;;;;;;;5153509;27;20086;-82
2023/06/10 08:21:43;;;;;;;8.32;4.40;;;;;;;;;;5153843;27;20440;-82
2023/06/10 08:24:10;;;;;;;8.38;4.13;;;;;;;;;;5152447;27;20047;-83
2023/06/10 08:26:36;;;;;;;7.97;4.32;;;;;;;;;;5134942;27;20079;-83
2023/06/10 08:29:02;;;;;;;12.23;4.53;;;;;;;;;;5120851;27;20050;-83
2023/06/10 08:31:28;;;;;;;11.77;5.22;;;;;;;;;;5137703;27;20046;-82
2023/06/10 08:33:54;;;;;;;11.75;4.75;;;;;;;;;;5156542;27;20130;-82
2023/06/10 08:36:20;;;;;;;9.25;3.85;;;;;;;;;;5157142;27;20091;-83
2023/06/10 08:38:46;;;;;;;9.35;4.05;;;;;;;;;;5120718;27;20050;-84
2023/06/10 08:41:15;;;;;;;12.25;4.35;;;;;;;;;;5154958;27;20402;-84
2023/06/10 08:43:44;;;;;;;9.63;4.25;;;;;;;;;;5155974;27;20122;-82
2023/06/10 08:46:10;;;;;;;10.55;4.45;;;;;;;;;;5137826;27;20038;-83
2023/06/10 08:48:41;;;;;;;7.43;3.85;;;;;;;;;;5154826;27;20043;-82
2023/06/10 08:51:10;;;;;;;8.75;4.07;;;;;;;;;;5157189;27;20436;-82
2023/06/10 08:53:37;;;;;;;9.00;4.28;;;;;;;;;;5137932;27;20043;-82
2023/06/10 08:56:04;;;;;;;9.23;4.20;;;;;;;;;;5156565;27;20043;-82
2023/06/10 08:58:33;;;;;;;10.57;3.92;;;;;;;;;;5138351;27;20137;-82
2023/06/10 09:00:59;;;;;;;8.90;4.18;;;;;;;;;;5133439;27;20146;-82
2023/06/10 09:03:26;;;;;;;7.78;4.18;;;;;;;;;;5151413;27;20118;-82
2023/06/10 09:05:52;;;;;;;9.25;4.38;;;;;;;;;;5128988;27;20053;-82
2023/06/10 09:08:18;;;;;;;6.90;3.90;;;;;;;;;;5153413;27;20051;-81
2023/06/10 09:10:44;;;;;;;10.68;4.35;;;;;;;;;;5119309;27;20179;-82
2023/06/10 09:13:10;;;;;;;9.98;4.43;;;;;;;;;;5156118;27;20130;-82
2023/06/10 09:15:36;;;;;;;14.90;4.15;;;;;;;;;;5135519;27;20039;-82
2023/06/10 09:18:02;;;;;;;7.32;3.65;;;;;;;;;;5136199;27;20147;-82
2023/06/10 09:20:29;;;;;;;7.85;3.90;;;;;;;;;;5154816;27;20045;-82
2023/06/10 09:22:55;;;;;;;9.57;4.20;;;;;;;;;;5116814;27;20042;-82
2023/06/10 09:25:34;;;;;;;12.95;4.07;;;;;;;;;;5153654;27;20114;-81
2023/06/10 09:28:00;;;;;;;9.50;4.15;;;;;;;;;;5118236;27;20057;-82
2023/06/10 09:30:30;;;;;;;10.13;4.20;;;;;;;;;;5135493;27;20053;-82
2023/06/10 09:32:57;;;;;;;9.90;4.40;;;;;;;;;;5154908;27;20042;-82
2023/06/10 09:35:24;;;;;;;10.52;4.22;;;;;;;;;;5137111;27;20051;-82
2023/06/10 09:37:54;;;;;;;10.63;3.80;;;;;;;;;;5155767;27;20038;-82
2023/06/10 09:40:20;;;;;;;12.30;4.20;;;;;;;;;;5156070;27;20451;-82
2023/06/10 09:42:48;;;;;;;9.85;3.75;;;;;;;;;;5156255;27;20107;-82
2023/06/10 09:45:15;;;;;;;9.23;4.03;;;;;;;;;;5137074;27;20039;-82
2023/06/10 09:47:41;;;;;;;7.50;3.95;;;;;;;;;;5155805;27;20053;-81
2023/06/10 09:50:07;;;;;;;7.25;4.00;;;;;;;;;;5155378;27;20379;-81
2023/06/10 09:52:33;;;;;;;11.05;4.30;;;;;;;;;;5155736;27;20125;-81
2023/06/10 09:55:01;;;;;;;7.65;4.03;;;;;;;;;;5155434;27;20206;-82
2023/06/10 09:57:32;;;;;;;10.20;4.25;;;;;;;;;;5137423;27;20383;-82
2023/06/10 09:59:58;;;;;;;13.55;4.40;;;;;;;;;;5136843;27;20054;-82
2023/06/10 10:02:24;;;;;;;10.80;4.07;;;;;;;;;;5155749;27;20050;-81
2023/06/10 10:04:50;;;;;;;8.63;4.10;;;;;;;;;;5136574;27;20043;-82
2023/06/10 10:07:16;;;;;;;8.70;3.95;;;;;;;;;;5155815;27;20355;-82
2023/06/10 10:09:43;;;;;;;10.05;4.03;;;;;;;;;;5135817;27;20038;-82
2023/06/10 10:12:11;;;;;;;11.18;4.10;;;;;;;;;;5155626;27;20047;-81
2023/06/10 10:14:37;;;;;;;9.75;4.20;;;;;;;;;;5154600;27;20117;-81
2023/06/10 10:17:05;;;;;;;10.90;4.15;;;;;;;;;;5155259;27;20050;-81
2023/06/10 10:19:32;;;;;;;6.95;3.83;;;;;;;;;;5136397;27;20042;-81
2023/06/10 10:22:24;;;;;;;7.32;3.90;;;;;;;;;;5155706;27;20453;-81
2023/06/10 10:24:51;;;;;;;8.75;4.00;;;;;;;;;;5132115;27;20498;-81
2023/06/10 10:27:19;;;;;;;8.55;4.03;;;;;;;;;;5153642;27;20039;-81
2023/06/10 10:29:46;;;;;;;8.05;3.63;;;;;;;;;;5153653;27;20047;-81
2023/06/10 10:32:14;;;;;;;8.88;4.35;;;;;;;;;;5157529;27;20038;-77
2023/06/10 10:34:40;;;;;;;8.32;4.20;;;;;;;;;;5153734;27;20509;-78
2023/06/10 10:37:06;;;;;;;7.68;3.63;;;;;;;;;;5154310;27;20035;-78
2023/06/10 10:39:34;;;;;;;8.98;3.97;;;;;;;;;;5135759;27;20083;-78
2023/06/10 10:42:00;;;;;;;7.03;3.60;;;;;;;;;;5154166;27;20435;-78
2023/06/10 10:44:27;;;;;;;9.82;3.70;;;;;;;;;;5152037;27;20055;-78
2023/06/10 10:46:54;;;;;;;6.57;3.33;;;;;;;;;;5154493;27;20039;-78
2023/06/10 10:49:20;;;;;;;8.27;3.90;;;;;;;;;;5153632;27;20047;-78
2023/06/10 10:51:59;;;;;;;7.72;3.78;;;;;;;;;;5135366;27;20047;-78
2023/06/10 10:54:30;;;;;;;5.75;3.47;;;;;;;;;;5135801;27;20413;-79
2023/06/10 10:57:23;;;;;;;7.65;3.85;;;;;;;;;;5119722;27;20042;-79
2023/06/10 10:59:49;;;;;;;6.85;3.85;;;;;;;;;;5149280;27;20057;-78
2023/06/10 11:02:16;;;;;;;8.45;3.92;;;;;;;;;;5147651;27;20031;-76
2023/06/10 11:04:49;;;;;;;8.55;3.90;;;;;;;;;;5111783;27;20047;-78
2023/06/10 11:07:21;;;;;;;8.45;3.30;;;;;;;;;;5130892;27;20059;-79
2023/06/10 11:10:00;;;;;;;7.60;3.50;;;;;;;;;;5146511;27;20392;-79
2023/06/10 11:12:46;;;;;;;6.82;3.67;;;;;;;;;;5142075;27;20495;-78
2023/06/10 11:15:12;;;;;;;10.10;3.60;;;;;;;;;;5113888;27;20069;-78
2023/06/10 11:17:58;;;;;;;6.18;3.25;;;;;;;;;;5133537;27;20047;-78
2023/06/10 11:20:45;;;;;;;8.10;3.60;;;;;;;;;;5114408;27;20074;-79
2023/06/10 11:23:11;;;;;;;5.55;3.50;;;;;;;;;;5138941;27;20190;-80
2023/06/10 11:25:40;;;;;;;6.53;2.97;;;;;;;;;;5153826;27;20042;-78
2023/06/10 11:28:19;;;;;;;7.20;3.35;;;;;;;;;;5153576;27;20049;-78
2023/06/10 11:30:45;;;;;;;9.10;3.65;;;;;;;;;;5153671;27;20102;-78
2023/06/10 11:33:15;;;;;;;7.70;3.10;;;;;;;;;;5153922;27;20043;-79
2023/06/10 11:35:41;;;;;;;7.20;2.95;;;;;;;;;;5152761;27;20046;-78
2023/06/10 11:38:07;;;;;;;5.97;2.60;;;;;;;;;;5132879;27;20039;-78
2023/06/10 11:40:34;;;;;;;6.75;2.95;;;;;;;;;;5152035;27;20045;-78
2023/06/10 11:43:00;;;;;;;6.43;2.80;;;;;;;;;;5153446;27;20047;-78
2023/06/10 11:45:26;;;;;;;6.70;2.60;;;;;;;;;;5133305;27;20054;-79
2023/06/10 11:47:57;;;;;;;7.20;2.80;;;;;;;;;;5153572;27;20102;-78
2023/06/10 11:50:33;;;;;;;6.82;2.90;;;;;;;;;;5153082;27;20039;-80
2023/06/10 11:52:59;;;;;;;5.43;2.60;;;;;;;;;;5153517;27;20554;-80
2023/06/10 11:55:40;;;;;;;4.45;2.83;;;;;;;;;;5134951;27;20130;-81
2023/06/10 11:58:12;;;;;;;6.07;3.00;;;;;;;;;;5153812;27;20425;-78
2023/06/10 12:00:44;;;;;;;6.70;2.80;;;;;;;;;;5135024;27;20085;-78
2023/06/10 12:03:10;;;;;;;6.05;2.80;;;;;;;;;;5157561;27;20091;-78
2023/06/10 12:05:36;;;;;;;6.43;2.65;;;;;;;;;;5156922;27;20064;-77
2023/06/10 12:08:09;;;;;;;7.20;3.10;;;;;;;;;;5129459;27;20061;-77
2023/06/10 12:10:40;;;;;;;5.72;2.60;;;;;;;;;;5137503;27;20385;-78
2023/06/10 12:13:06;;;;;;;6.07;2.80;;;;;;;;;;5157269;27;20050;-77
2023/06/10 12:15:32;;;;;;;7.07;3.00;;;;;;;;;;5157380;27;20097;-77
2023/06/10 12:17:59;;;;;;;6.32;2.50;;;;;;;;;;5138942;27;20428;-77
2023/06/10 12:20:26;;;;;;;5.60;2.88;;;;;;;;;;5121175;27;20038;-78
2023/06/10 12:22:52;;;;;;;7.82;2.80;;;;;;;;;;5157149;27;20478;-79
2023/06/10 12:25:26;;;;;;;7.93;3.10;;;;;;;;;;5157330;27;20047;-79
2023/06/10 12:27:55;;;;;;;5.50;2.97;;;;;;;;;;5138439;27;20047;-79
2023/06/10 12:30:22;;;;;;;6.50;2.78;;;;;;;;;;5121217;27;20398;-78
2023/06/10 12:32:48;;;;;;;6.18;2.90;;;;;;;;;;5121781;27;20457;-78
2023/06/10 12:35:18;;;;;;;5.80;3.00;;;;;;;;;;5119894;27;20491;-78
2023/06/10 12:38:06;;;;;;;5.20;2.97;;;;;;;;;;5135396;27;20043;-78
2023/06/10 12:40:33;;;;;;;7.35;3.28;;;;;;;;;;5113344;27;20458;-78
2023/06/10 12:42:59;;;;;;;5.55;2.97;;;;;;;;;;5137235;27;20138;-78
2023/06/10 12:45:37;;;;;;;10.13;3.40;;;;;;;;;;5152462;27;20055;-78
2023/06/10 12:48:11;;;;;;;6.30;3.38;;;;;;;;;;5144906;27;20049;-77
2023/06/10 12:50:38;;;;;;;11.77;4.28;;;;;;;;;;5156642;27;20042;-77
2023/06/10 12:53:05;;;;;;;7.13;3.28;;;;;;;;;;5156841;27;20113;-77
2023/06/10 12:55:32;;;;;;;6.90;3.28;;;;;;;;;;5120781;27;20146;-77
2023/06/10 12:57:58;;;;;;;7.45;3.60;;;;;;;;;;5137155;27;20051;-77
2023/06/10 13:00:29;;;;;;;9.77;4.28;;;;;;;;;;5136060;27;20049;-77
2023/06/10 13:02:56;;;;;;;7.38;3.38;;;;;;;;;;5118978;27;20488;-78
2023/06/10 13:05:22;;;;;;;18.10;5.10;;;;;;;;;;5136522;27;20043;-77
2023/06/10 13:07:48;;;;;;;8.32;3.30;;;;;;;;;;5116981;27;20507;-78
2023/06/10 13:10:16;;;;;;;10.00;4.43;;;;;;;;;;5152596;27;20409;-77
2023/06/10 13:12:42;;;;;;;8.75;4.03;;;;;;;;;;5135607;27;20476;-77
2023/06/10 13:15:08;;;;;;;8.95;4.00;;;;;;;;;;5146031;27;20206;-77
2023/06/10 13:17:35;;;;;;;8.23;3.65;;;;;;;;;;5117145;27;20111;-79
2023/06/10 13:20:03;;;;;;;8.40;3.90;;;;;;;;;;5128054;27;20113;-79
2023/06/10 13:22:30;;;;;;;9.48;3.80;;;;;;;;;;5156378;27;20053;-78
2023/06/10 13:24:56;;;;;;;6.97;3.47;;;;;;;;;;5135834;27;20054;-78
2023/06/10 13:27:22;;;;;;;10.20;4.05;;;;;;;;;;5137532;27;20050;-77
2023/06/10 13:29:48;;;;;;;10.85;3.80;;;;;;;;;;5123433;27;20043;-77
2023/06/10 13:32:14;;;;;;;9.43;3.80;;;;;;;;;;5134018;27;20050;-78
2023/06/10 13:34:40;;;;;;;7.97;4.13;;;;;;;;;;5148632;27;20038;-78
2023/06/10 13:37:06;;;;;;;8.10;3.65;;;;;;;;;;5155446;27;20487;-77
2023/06/10 13:39:32;;;;;;;7.57;3.55;;;;;;;;;;5154952;27;20066;-77
2023/06/10 13:41:58;;;;;;;7.88;3.42;;;;;;;;;;5155989;27;20443;-79
2023/06/10 13:44:24;;;;;;;9.57;3.70;;;;;;;;;;5136544;27;20107;-80
2023/06/10 13:46:50;;;;;;;8.23;3.42;;;;;;;;;;5155691;27;20045;-77
2023/06/10 13:49:17;;;;;;;5.70;3.08;;;;;;;;;;5119606;27;20184;-78
2023/06/10 13:51:42;;;;;;;8.82;3.88;;;;;;;;;;5136442;27;20046;-78
2023/06/10 13:54:09;;;;;;;8.05;3.60;;;;;;;;;;5120553;27;20464;-77
2023/06/10 13:56:37;;;;;;;7.07;3.22;;;;;;;;;;5119647;27;20039;-78
2023/06/10 13:59:04;;;;;;;5.93;3.40;;;;;;;;;;5131670;27;20043;-77
2023/06/10 14:01:30;;;;;;;9.18;3.60;;;;;;;;;;5138235;27;20118;-73
2023/06/10 14:03:56;;;;;;;7.72;3.38;;;;;;;;;;5154740;27;20487;-77
2023/06/10 14:06:22;;;;;;;7.38;3.33;;;;;;;;;;5136381;27;20042;-76
2023/06/10 14:08:48;;;;;;;8.27;3.20;;;;;;;;;;5155241;27;20050;-76
2023/06/10 14:11:15;;;;;;;8.82;3.10;;;;;;;;;;5155027;27;20043;-76
2023/06/10 14:13:41;;;;;;;7.75;3.33;;;;;;;;;;5155123;27;20050;-76
2023/06/10 14:16:07;;;;;;;6.85;3.20;;;;;;;;;;5154910;27;20179;-76
2023/06/10 14:18:33;;;;;;;7.82;3.53;;;;;;;;;;5136248;27;20039;-77
2023/06/10 14:20:59;;;;;;;7.10;3.17;;;;;;;;;;5136513;27;20135;-77
2023/06/10 14:23:26;;;;;;;6.63;2.88;;;;;;;;;;5155209;27;20095;-77
2023/06/10 14:25:52;;;;;;;9.25;3.38;;;;;;;;;;5131828;27;20083;-77
2023/06/10 14:28:18;;;;;;;7.22;3.33;;;;;;;;;;5132616;27;20130;-77
2023/06/10 14:30:44;;;;;;;6.55;3.00;;;;;;;;;;5133322;27;20125;-77
2023/06/10 14:33:10;;;;;;;6.25;3.13;;;;;;;;;;5152644;27;20041;-77
2023/06/10 14:35:36;;;;;;;7.85;2.92;;;;;;;;;;5152864;27;20122;-77
2023/06/10 14:38:03;;;;;;;5.00;2.78;;;;;;;;;;5152497;27;20447;-77